Rutherfordton, NC

8:40 PM EST on February 11, 2016 (GMT -0500)
RAWS | | Change Station
CLOSE
Current Station
Personal Weather Station
Location: Rutherfordton, NC
Elevation: 1056 ft
Nearby Weather Stations

Elev 1056 ft 35.43 °N, 81.94 °W | Updated 30 minutes ago

Clear
Clear
34 °F
Feels Like 34 °F
N
2
Wind Variable Wind from WNW
Gusts 9.0 mph

Today
High -- | Low -- °F
--% Chance of Precip.
Yesterday
High -- | Low -- °F
Precip. -- in
Pressure 30.21 in
Visibility 10.0 miles
Clouds Clear
Windchill 34 °F
Dew Point 20 °F
Humidity 56%
Rainfall in
Snow Depth Not available.
7:18 AM 6:05 PM
Waxing Crescent, 16% visible
METAR KFQD 120115Z AUTO 00000KT 10SM CLR 02/M08 A3021 RMK AO2 T00201080
Pressure 30.21 in
Visibility 10.0 miles
Clouds Clear
Windchill 34 °F
Dew Point 20 °F
Humidity 56%
Rainfall in
Snow Depth Not available.
7:18 AM 6:05 PM
Waxing Crescent, 16% visible
METAR KFQD 120115Z AUTO 00000KT 10SM CLR 02/M08 A3021 RMK AO2 T00201080

10-Day Weather Forecast

Almanac

Astronomy

Feb. 11, 2016 Rise Set
Actual Time
Civil Twilight
Nautical Twilight
Astronomical Twilight
Moon
Length of Visible Light
Length of Day
Tomorrow will be .
, % of the Moon is Illuminated

Today's Extremes

State Highs State Lows

Community

WunderPhotos

Upload Photos

1,892,207 photos uploaded!

WunderBlog® & News

Nearby

Air Quality

  Air Quality AQ Index Pollutant
Not available.

Snow Depth

Station Depth Elevation

Earthquake Activity

City Distance Mag. Time & Date
Minimum magnitude displayed is 2.5.

Coastal Water Temperatures

Place Temperature

Stations

Nearby Weather Stations

Station Location Temp. Windchill Dew Point Humidity Wind Precip. Elev Updated Type
                   

Watches & Warnings

There are currently no watches in effect.